createdAt,value
2023-02-19T00:01:08.758Z,94.34
2023-02-19T00:03:36.742Z,93.06
2023-02-19T00:06:05.265Z,93.65
2023-02-19T00:08:33.178Z,93.57
2023-02-19T00:11:04.290Z,92.90
2023-02-19T00:13:32.080Z,92.49
2023-02-19T00:16:00.539Z,93.19
2023-02-19T00:18:29.597Z,93.72
2023-02-19T00:20:57.371Z,93.83
2023-02-19T00:23:24.921Z,93.44
2023-02-19T00:25:52.388Z,93.69
2023-02-19T00:28:19.858Z,93.42
2023-02-19T00:30:47.386Z,92.41
2023-02-19T00:33:15.201Z,93.15
2023-02-19T00:35:43.959Z,92.90
2023-02-19T00:38:11.593Z,93.25
2023-02-19T00:40:39.414Z,93.08
2023-02-19T00:43:06.885Z,92.80
2023-02-19T00:45:35.685Z,93.51
2023-02-19T00:48:03.192Z,93.95
2023-02-19T00:50:30.666Z,92.52
2023-02-19T00:52:59.457Z,91.74
2023-02-19T00:55:26.943Z,91.60
2023-02-19T00:57:54.449Z,91.32
2023-02-19T01:00:22.097Z,90.65
2023-02-19T01:02:49.609Z,90.57
2023-02-19T01:05:17.067Z,90.24
2023-02-19T01:07:44.532Z,91.58
2023-02-19T01:10:13.323Z,93.31
2023-02-19T01:12:40.808Z,94.68
2023-02-19T01:15:09.070Z,95.04
2023-02-19T01:17:36.787Z,95.73
2023-02-19T01:20:04.523Z,94.10
2023-02-19T01:22:31.984Z,93.00
2023-02-19T01:24:59.446Z,90.78
2023-02-19T01:27:28.243Z,91.94
2023-02-19T01:29:55.689Z,91.93
2023-02-19T01:32:23.239Z,91.72
2023-02-19T01:34:50.716Z,91.83
2023-02-19T01:37:18.343Z,92.03
2023-02-19T01:39:45.803Z,92.51
2023-02-19T01:42:15.281Z,92.99
2023-02-19T01:45:16.491Z,92.44
2023-02-19T01:47:45.567Z,91.90
2023-02-19T01:50:13.070Z,91.10
2023-02-19T01:52:40.598Z,90.78
2023-02-19T01:55:09.257Z,90.31
2023-02-19T01:57:40.087Z,89.37
2023-02-19T02:00:12.135Z,88.91
2023-02-19T02:02:40.316Z,88.91
2023-02-19T02:05:11.611Z,90.16
2023-02-19T02:07:56.999Z,89.96
2023-02-19T02:10:24.506Z,89.29
2023-02-19T02:12:53.652Z,87.97
2023-02-19T02:15:22.276Z,89.34
2023-02-19T02:17:55.202Z,90.63
2023-02-19T02:20:28.276Z,91.51
2023-02-19T02:23:01.200Z,93.35
2023-02-19T02:26:06.697Z,94.20
2023-02-19T02:28:56.043Z,93.27
2023-02-19T02:31:26.986Z,91.91
2023-02-19T02:33:58.697Z,90.65
2023-02-19T02:36:29.476Z,91.03
2023-02-19T02:38:57.173Z,90.32
2023-02-19T02:41:24.690Z,90.76
2023-02-19T02:43:52.184Z,90.49
2023-02-19T02:46:21.630Z,90.60
2023-02-19T02:48:54.002Z,92.13
2023-02-19T02:51:24.788Z,92.35
2023-02-19T02:54:12.404Z,93.65
2023-02-19T02:56:41.255Z,94.02
2023-02-19T02:59:10.924Z,93.43
2023-02-19T03:02:01.172Z,93.42
2023-02-19T03:04:33.824Z,92.42
2023-02-19T03:07:05.351Z,92.65
2023-02-19T03:09:40.441Z,89.52
2023-02-19T03:12:28.268Z,88.39
2023-02-19T03:15:16.472Z,89.46
2023-02-19T03:18:04.935Z,89.03
2023-02-19T03:20:35.193Z,88.47
2023-02-19T03:23:03.280Z,88.56
2023-02-19T03:25:50.740Z,88.46
2023-02-19T03:28:19.177Z,90.85
2023-02-19T03:30:49.067Z,91.36
2023-02-19T03:33:18.414Z,91.36
2023-02-19T03:35:48.908Z,91.80
2023-02-19T03:38:18.792Z,91.87
2023-02-19T03:40:54.923Z,91.65
2023-02-19T03:43:25.921Z,92.44
2023-02-19T03:46:00.199Z,92.55
2023-02-19T03:48:31.710Z,94.23
2023-02-19T03:51:08.614Z,94.00
2023-02-19T03:53:40.519Z,94.52
2023-02-19T03:56:10.958Z,94.53
2023-02-19T03:58:43.119Z,94.92
2023-02-19T04:01:14.424Z,94.86
2023-02-19T04:03:44.267Z,95.20
2023-02-19T04:06:16.523Z,95.79
2023-02-19T04:08:47.411Z,95.11
2023-02-19T04:11:16.065Z,95.66
2023-02-19T04:13:45.977Z,94.02
2023-02-19T04:16:17.389Z,94.77
2023-02-19T04:18:45.611Z,94.20
2023-02-19T04:21:22.132Z,93.50
2023-02-19T04:23:50.095Z,93.98
2023-02-19T04:26:18.316Z,94.14
2023-02-19T04:28:45.764Z,94.23
2023-02-19T04:31:13.595Z,94.88
2023-02-19T04:33:41.382Z,94.57
2023-02-19T04:36:11.529Z,94.72
2023-02-19T04:38:40.366Z,93.92
2023-02-19T04:41:07.976Z,94.12
2023-02-19T04:43:35.557Z,94.38
2023-02-19T04:46:03.210Z,94.12
2023-02-19T04:48:30.694Z,93.61
2023-02-19T04:50:58.367Z,94.35
2023-02-19T04:53:25.873Z,93.35
2023-02-19T04:55:54.657Z,94.08
2023-02-19T04:58:22.487Z,94.41
2023-02-19T05:00:53.292Z,93.86
2023-02-19T05:03:20.767Z,93.44
2023-02-19T05:05:48.229Z,93.71
2023-02-19T05:08:15.706Z,94.18
2023-02-19T05:10:43.200Z,93.63
2023-02-19T05:13:12.090Z,93.72
2023-02-19T05:15:39.616Z,93.74
2023-02-19T05:18:07.177Z,93.20
2023-02-19T05:20:34.662Z,93.55
2023-02-19T05:23:02.153Z,93.89
2023-02-19T05:25:29.609Z,93.66
2023-02-19T05:28:17.025Z,93.34
2023-02-19T05:30:46.252Z,92.91
2023-02-19T05:33:14.695Z,93.80
2023-02-19T05:35:43.691Z,93.61
2023-02-19T05:38:11.905Z,93.65
2023-02-19T05:40:39.734Z,93.74
2023-02-19T05:43:07.403Z,93.51
2023-02-19T05:45:35.669Z,92.66
2023-02-19T05:48:04.764Z,92.94
2023-02-19T05:50:33.288Z,92.70
2023-02-19T05:53:01.677Z,92.24
2023-02-19T05:55:29.466Z,93.02
2023-02-19T05:57:57.203Z,93.10
2023-02-19T06:00:26.976Z,93.21
2023-02-19T06:02:54.766Z,93.12
2023-02-19T06:05:23.582Z,92.77
2023-02-19T06:07:51.391Z,92.29
2023-02-19T06:10:19.004Z,92.75
2023-02-19T06:12:46.474Z,92.95
2023-02-19T06:15:13.948Z,91.56
2023-02-19T06:17:41.437Z,92.59
2023-02-19T06:20:09.799Z,90.90
2023-02-19T06:22:38.569Z,92.90
2023-02-19T06:25:07.860Z,91.40
2023-02-19T06:27:37.455Z,92.44
2023-02-19T06:30:05.316Z,91.61
2023-02-19T06:32:32.856Z,92.94
2023-02-19T06:35:00.352Z,92.18
2023-02-19T06:37:27.879Z,92.36
2023-02-19T06:39:56.636Z,91.72
2023-02-19T06:42:24.106Z,91.02
2023-02-19T06:44:51.565Z,92.66
2023-02-19T06:47:19.054Z,91.46
2023-02-19T06:49:46.510Z,90.55
2023-02-19T06:52:14.045Z,91.81
2023-02-19T06:54:41.506Z,92.11
2023-02-19T06:57:10.282Z,92.00
2023-02-19T06:59:37.765Z,91.36
2023-02-19T07:02:06.073Z,91.10
2023-02-19T07:04:33.623Z,90.91
2023-02-19T07:07:01.123Z,91.77
2023-02-19T07:09:28.718Z,91.27
2023-02-19T07:11:56.184Z,91.53
2023-02-19T07:14:25.069Z,90.31
2023-02-19T07:16:52.549Z,92.12
2023-02-19T07:19:20.008Z,92.07
2023-02-19T07:21:47.477Z,92.56
2023-02-19T07:24:14.920Z,93.26
2023-02-19T07:26:42.387Z,92.54
2023-02-19T07:29:10.647Z,92.59
2023-02-19T07:31:39.602Z,93.42
2023-02-19T07:34:07.998Z,93.22
2023-02-19T07:36:35.464Z,93.52
2023-02-19T07:39:02.918Z,93.24
2023-02-19T07:41:30.437Z,92.55
2023-02-19T07:43:57.982Z,93.30
2023-02-19T07:46:25.910Z,92.00
2023-02-19T07:48:54.692Z,92.46
2023-02-19T07:51:22.264Z,92.78
2023-02-19T07:53:51.228Z,93.52
2023-02-19T07:56:19.790Z,93.70
2023-02-19T07:58:47.393Z,92.70
2023-02-19T08:01:16.362Z,93.36
2023-02-19T08:03:43.706Z,92.63
2023-02-19T08:06:13.177Z,93.62
2023-02-19T08:08:41.021Z,93.08
2023-02-19T08:11:26.371Z,92.75
2023-02-19T08:13:54.148Z,91.98
2023-02-19T08:16:36.737Z,92.42
2023-02-19T08:19:09.838Z,93.08
2023-02-19T08:21:38.640Z,93.33
2023-02-19T08:24:06.695Z,93.15
2023-02-19T08:26:34.228Z,93.34
2023-02-19T08:29:01.765Z,93.37
2023-02-19T08:31:29.450Z,93.83
2023-02-19T08:33:56.977Z,92.65
2023-02-19T08:36:24.532Z,93.45
2023-02-19T08:38:53.318Z,93.16
2023-02-19T08:41:22.647Z,93.69
2023-02-19T08:43:50.091Z,93.39
2023-02-19T08:46:17.708Z,92.92
2023-02-19T08:48:45.202Z,92.43
2023-02-19T08:51:13.572Z,92.84
2023-02-19T08:53:41.833Z,92.86
2023-02-19T08:56:12.237Z,93.21
2023-02-19T08:58:40.092Z,93.05
2023-02-19T09:01:09.568Z,93.27
2023-02-19T09:03:37.306Z,93.14
2023-02-19T09:06:05.157Z,92.51
2023-02-19T09:08:32.737Z,92.52
2023-02-19T09:11:01.229Z,93.10
2023-02-19T09:13:30.046Z,91.83
2023-02-19T09:15:57.929Z,92.30
2023-02-19T09:18:26.091Z,91.86
2023-02-19T09:20:53.561Z,91.71
2023-02-19T09:23:21.059Z,92.05
2023-02-19T09:25:48.536Z,91.78
2023-02-19T09:28:16.884Z,91.57
2023-02-19T09:30:45.745Z,90.36
2023-02-19T09:33:13.290Z,91.56
2023-02-19T09:35:41.115Z,90.83
2023-02-19T09:38:10.754Z,90.74
2023-02-19T09:40:38.991Z,90.82
2023-02-19T09:43:08.099Z,89.78
2023-02-19T09:45:37.957Z,90.48
2023-02-19T09:48:07.500Z,90.58
2023-02-19T09:50:37.921Z,90.95
2023-02-19T09:53:08.624Z,90.02
2023-02-19T09:55:37.892Z,89.64
2023-02-19T09:58:29.902Z,87.22
2023-02-19T10:00:59.680Z,90.14
2023-02-19T10:03:31.842Z,87.78
2023-02-19T10:06:00.235Z,88.54
2023-02-19T10:08:27.689Z,89.02
2023-02-19T10:10:55.640Z,89.12
2023-02-19T10:13:25.495Z,88.34
2023-02-19T10:15:54.165Z,86.62
2023-02-19T10:18:24.042Z,86.80
2023-02-19T10:20:53.651Z,86.83
2023-02-19T10:23:21.377Z,85.94
2023-02-19T10:25:50.616Z,86.56
2023-02-19T10:28:19.589Z,85.39
2023-02-19T10:30:53.117Z,86.29
2023-02-19T10:33:21.099Z,84.57
2023-02-19T10:35:57.942Z,85.51
2023-02-19T10:38:29.164Z,81.86
2023-02-19T10:41:02.573Z,83.40
2023-02-19T10:43:34.645Z,84.39
2023-02-19T10:46:05.152Z,85.73
2023-02-19T10:48:34.053Z,84.63
2023-02-19T10:51:05.990Z,82.70
2023-02-19T10:53:41.124Z,83.68
2023-02-19T10:56:10.556Z,83.13
2023-02-19T10:58:40.252Z,83.29
2023-02-19T11:01:13.416Z,81.28
2023-02-19T11:03:41.646Z,81.99
2023-02-19T11:06:12.124Z,80.83
2023-02-19T11:08:48.722Z,80.60
2023-02-19T11:11:37.349Z,80.03
2023-02-19T11:14:07.231Z,79.72
2023-02-19T11:16:41.013Z,80.22
2023-02-19T11:19:26.546Z,82.34
2023-02-19T11:21:56.077Z,80.96
2023-02-19T11:24:27.231Z,80.33
2023-02-19T11:26:54.838Z,81.84
2023-02-19T11:29:24.491Z,77.82
2023-02-19T11:31:52.139Z,79.30
2023-02-19T11:34:30.357Z,81.98
2023-02-19T11:37:13.539Z,76.15
2023-02-19T11:39:41.693Z,74.69
2023-02-19T11:42:36.116Z,75.24
2023-02-19T11:45:18.044Z,76.94
2023-02-19T11:48:06.905Z,78.03
2023-02-19T11:50:46.806Z,79.86
2023-02-19T11:53:21.251Z,74.01
2023-02-19T11:56:01.899Z,80.59
2023-02-19T11:58:46.996Z,74.36
2023-02-19T12:01:24.264Z,73.30
2023-02-19T12:04:09.212Z,78.06
2023-02-19T12:06:44.945Z,73.12
2023-02-19T12:09:30.769Z,73.44
2023-02-19T12:12:18.413Z,75.54
2023-02-19T12:15:07.482Z,73.18
2023-02-19T12:17:49.128Z,73.58
2023-02-19T12:20:22.719Z,73.77
2023-02-19T12:22:54.423Z,74.87
2023-02-19T12:25:45.714Z,75.96
2023-02-19T12:28:29.117Z,73.69
2023-02-19T12:31:16.527Z,72.50
2023-02-19T12:34:09.728Z,73.31
2023-02-19T12:36:42.844Z,73.34
2023-02-19T12:39:15.417Z,72.39
2023-02-19T12:41:50.199Z,71.85
2023-02-19T12:44:20.203Z,70.00
2023-02-19T12:46:50.758Z,69.81
2023-02-19T12:49:22.863Z,73.28
2023-02-19T12:51:51.402Z,71.87
2023-02-19T12:54:23.587Z,70.23
2023-02-19T12:56:56.362Z,71.89
2023-02-19T12:59:27.602Z,69.93
2023-02-19T13:02:00.381Z,70.26
2023-02-19T13:04:36.300Z,73.62
2023-02-19T13:07:07.680Z,71.75
2023-02-19T13:09:38.076Z,70.99
2023-02-19T13:12:09.641Z,70.53
2023-02-19T13:14:39.761Z,72.87
2023-02-19T13:17:17.654Z,76.85
2023-02-19T13:19:49.560Z,69.75
2023-02-19T13:22:39.513Z,69.24
2023-02-19T13:25:07.952Z,70.22
2023-02-19T13:27:49.262Z,70.45
2023-02-19T13:30:29.067Z,68.84
2023-02-19T13:33:02.531Z,70.46
2023-02-19T13:35:52.974Z,68.95
2023-02-19T13:38:20.663Z,72.59
2023-02-19T13:40:54.887Z,70.91
2023-02-19T13:43:25.773Z,70.20
2023-02-19T13:45:56.770Z,71.35
2023-02-19T13:48:30.291Z,70.02
2023-02-19T13:51:35.549Z,72.63
2023-02-19T13:54:14.674Z,69.89
2023-02-19T13:56:42.208Z,68.76
2023-02-19T13:59:24.609Z,70.87
2023-02-19T14:02:14.273Z,69.60
2023-02-19T14:04:50.321Z,75.04
2023-02-19T14:07:29.405Z,69.19
2023-02-19T14:09:58.475Z,72.58
2023-02-19T14:12:32.796Z,74.33
2023-02-19T14:15:45.998Z,71.36
2023-02-19T14:18:45.064Z,69.36
2023-02-19T14:21:18.326Z,69.30
2023-02-19T14:23:46.433Z,69.29
2023-02-19T14:26:14.038Z,71.48
2023-02-19T14:28:45.657Z,70.87
2023-02-19T14:31:22.462Z,69.91
2023-02-19T14:33:51.336Z,71.62
2023-02-19T14:36:31.169Z,67.47
2023-02-19T14:39:00.553Z,71.17
2023-02-19T14:41:28.814Z,68.08
2023-02-19T14:43:57.772Z,68.74
2023-02-19T14:46:31.591Z,68.94
2023-02-19T14:49:05.092Z,72.67
2023-02-19T14:51:34.896Z,69.00
2023-02-19T14:54:07.457Z,68.55
2023-02-19T14:56:35.976Z,68.93
2023-02-19T14:59:22.847Z,69.57
2023-02-19T15:02:02.923Z,72.00
2023-02-19T15:04:35.082Z,68.28
2023-02-19T15:07:04.273Z,69.86
2023-02-19T15:09:33.831Z,68.52
2023-02-19T15:12:02.773Z,68.07
2023-02-19T15:14:32.295Z,72.31
2023-02-19T15:17:04.065Z,70.10
2023-02-19T15:19:34.987Z,72.57
2023-02-19T15:22:03.098Z,74.05
2023-02-19T15:24:30.974Z,73.43
2023-02-19T15:26:58.657Z,71.87
2023-02-19T15:29:27.479Z,68.79
2023-02-19T15:31:56.485Z,71.92
2023-02-19T15:34:26.932Z,70.93
2023-02-19T15:36:58.448Z,70.57
2023-02-19T15:39:27.580Z,74.42
2023-02-19T15:41:59.991Z,73.31
2023-02-19T15:44:33.486Z,74.04
2023-02-19T15:47:05.167Z,74.69
2023-02-19T15:49:40.395Z,74.56
2023-02-19T15:52:10.450Z,75.36
2023-02-19T15:54:42.911Z,75.21
2023-02-19T15:57:15.531Z,75.35
2023-02-19T15:59:47.184Z,73.94
2023-02-19T16:02:15.420Z,74.57
2023-02-19T16:04:45.232Z,74.09
2023-02-19T16:07:24.307Z,74.18
2023-02-19T16:10:07.101Z,74.33
2023-02-19T16:12:34.720Z,74.71
2023-02-19T16:15:13.299Z,73.27
2023-02-19T16:17:43.316Z,72.05
2023-02-19T16:20:22.062Z,75.40
2023-02-19T16:22:49.840Z,74.97
2023-02-19T16:25:27.261Z,75.09
2023-02-19T16:27:55.128Z,75.58
2023-02-19T16:30:34.046Z,77.24
2023-02-19T16:33:21.542Z,76.67
2023-02-19T16:35:52.356Z,74.65
2023-02-19T16:38:20.935Z,76.09
2023-02-19T16:41:07.553Z,75.71
2023-02-19T16:43:42.211Z,75.64
2023-02-19T16:46:11.733Z,75.59
2023-02-19T16:48:39.692Z,75.46
2023-02-19T16:51:10.208Z,72.22
2023-02-19T16:53:37.978Z,72.88
2023-02-19T16:56:05.954Z,75.09
2023-02-19T16:58:33.493Z,78.02
2023-02-19T17:01:01.733Z,75.36
2023-02-19T17:03:29.212Z,75.06
2023-02-19T17:05:57.382Z,77.28
2023-02-19T17:08:33.997Z,80.08
2023-02-19T17:11:03.020Z,80.78
2023-02-19T17:13:30.709Z,83.22
2023-02-19T17:15:58.277Z,82.13
2023-02-19T17:18:26.004Z,83.01
2023-02-19T17:20:56.316Z,84.16
2023-02-19T17:23:24.573Z,81.81
2023-02-19T17:25:53.586Z,84.62
2023-02-19T17:28:21.092Z,85.61
2023-02-19T17:30:48.580Z,86.68
2023-02-19T17:33:16.102Z,87.52
2023-02-19T17:35:44.874Z,88.09
2023-02-19T17:38:13.335Z,88.03
2023-02-19T17:40:41.194Z,87.77
2023-02-19T17:43:10.024Z,86.51
2023-02-19T17:45:43.076Z,86.60
2023-02-19T17:48:13.221Z,87.06
2023-02-19T17:50:45.083Z,86.52
2023-02-19T17:53:12.555Z,86.37
2023-02-19T17:55:40.048Z,85.88
2023-02-19T17:58:07.580Z,86.75
2023-02-19T18:00:36.622Z,87.12
2023-02-19T18:03:04.827Z,86.86
2023-02-19T18:05:32.276Z,87.22
2023-02-19T18:07:59.921Z,86.24
2023-02-19T18:10:27.415Z,88.11
2023-02-19T18:12:54.995Z,85.99
2023-02-19T18:15:24.538Z,85.37
2023-02-19T18:17:54.041Z,85.53
2023-02-19T18:20:23.215Z,86.78
2023-02-19T18:22:51.045Z,87.71
2023-02-19T18:25:19.497Z,87.14
2023-02-19T18:27:47.416Z,87.02
2023-02-19T18:30:17.734Z,88.91
2023-02-19T18:32:45.629Z,88.51
2023-02-19T18:35:14.629Z,89.25
2023-02-19T18:37:42.099Z,89.85
2023-02-19T18:40:10.628Z,87.99
2023-02-19T18:42:39.140Z,86.01
2023-02-19T18:45:06.906Z,84.90
2023-02-19T18:47:34.394Z,85.44
2023-02-19T18:50:02.133Z,83.57
2023-02-19T18:52:30.908Z,84.74
2023-02-19T18:54:58.425Z,84.26
2023-02-19T18:57:26.542Z,84.50
2023-02-19T18:59:54.192Z,84.11
2023-02-19T19:02:21.745Z,86.06
2023-02-19T19:04:50.401Z,88.35
2023-02-19T19:07:18.158Z,89.00
2023-02-19T19:09:47.004Z,88.69
2023-02-19T19:12:15.348Z,87.35
2023-02-19T19:14:42.861Z,87.13
2023-02-19T19:17:10.509Z,87.56
2023-02-19T19:19:38.011Z,88.95
2023-02-19T19:22:05.544Z,88.77
2023-02-19T19:24:33.075Z,85.86
2023-02-19T19:27:01.884Z,85.45
2023-02-19T19:29:29.597Z,84.00
2023-02-19T19:31:57.127Z,82.65
2023-02-19T19:34:24.722Z,82.95
2023-02-19T19:36:52.355Z,82.30
2023-02-19T19:39:19.874Z,80.87
2023-02-19T19:41:47.410Z,80.37
2023-02-19T19:44:16.307Z,80.11
2023-02-19T19:46:45.393Z,78.80
2023-02-19T19:49:13.012Z,79.84
2023-02-19T19:51:40.472Z,80.05
2023-02-19T19:54:08.428Z,79.49
2023-02-19T19:56:41.056Z,79.58
2023-02-19T19:59:10.778Z,79.10
2023-02-19T20:01:39.920Z,78.90
2023-02-19T20:04:07.540Z,79.39
2023-02-19T20:06:35.008Z,79.30
2023-02-19T20:09:02.488Z,79.47
2023-02-19T20:11:29.947Z,78.88
2023-02-19T20:13:57.460Z,78.87
2023-02-19T20:16:26.274Z,78.67
2023-02-19T20:18:55.283Z,78.59
2023-02-19T20:21:22.786Z,79.18
2023-02-19T20:23:50.278Z,79.16
2023-02-19T20:26:23.111Z,78.83
2023-02-19T20:28:50.610Z,78.76
2023-02-19T20:31:18.545Z,78.93
2023-02-19T20:33:47.716Z,79.17
2023-02-19T20:36:16.509Z,78.82
2023-02-19T20:38:44.124Z,78.97
2023-02-19T20:41:12.311Z,79.27
2023-02-19T20:43:40.688Z,79.53
2023-02-19T20:46:08.546Z,78.87
2023-02-19T20:48:36.068Z,78.67
2023-02-19T20:51:03.574Z,78.15
2023-02-19T20:53:32.794Z,78.77
2023-02-19T20:56:00.371Z,79.34
2023-02-19T20:58:28.308Z,79.38
2023-02-19T21:00:55.820Z,78.82
2023-02-19T21:03:23.497Z,79.14
2023-02-19T21:05:50.993Z,79.40
2023-02-19T21:08:18.542Z,78.27
2023-02-19T21:10:47.783Z,79.24
2023-02-19T21:13:15.301Z,79.79
2023-02-19T21:15:42.798Z,79.99
2023-02-19T21:18:10.308Z,78.93
2023-02-19T21:20:37.753Z,79.31
2023-02-19T21:23:05.497Z,79.19
2023-02-19T21:25:33.247Z,79.71
2023-02-19T21:28:02.164Z,79.46
2023-02-19T21:30:29.728Z,79.02
2023-02-19T21:32:57.212Z,79.13
2023-02-19T21:35:24.840Z,79.15
2023-02-19T21:37:52.325Z,79.37
2023-02-19T21:40:21.521Z,79.69
2023-02-19T21:42:48.988Z,79.38
2023-02-19T21:45:17.818Z,78.98
2023-02-19T21:47:45.287Z,79.66
2023-02-19T21:50:13.259Z,79.27
2023-02-19T21:52:40.717Z,78.78
2023-02-19T21:55:08.507Z,79.65
2023-02-19T21:57:35.983Z,78.83
2023-02-19T22:00:05.403Z,79.43
2023-02-19T22:02:34.333Z,79.42
2023-02-19T22:05:02.497Z,79.46
2023-02-19T22:07:30.542Z,79.33
2023-02-19T22:09:58.102Z,79.48
2023-02-19T22:12:25.605Z,79.60
2023-02-19T22:14:53.655Z,79.30
2023-02-19T22:17:21.271Z,79.49
2023-02-19T22:19:50.044Z,78.91
2023-02-19T22:22:17.513Z,79.21
2023-02-19T22:24:44.990Z,79.65
2023-02-19T22:27:12.437Z,79.34
2023-02-19T22:29:39.995Z,79.30
2023-02-19T22:32:08.200Z,79.86
2023-02-19T22:34:39.434Z,79.19
2023-02-19T22:37:08.268Z,79.91
2023-02-19T22:39:35.841Z,79.69
2023-02-19T22:42:03.329Z,79.70
2023-02-19T22:44:30.809Z,80.04
2023-02-19T22:46:58.270Z,79.14
2023-02-19T22:49:25.808Z,79.27
2023-02-19T22:51:56.396Z,79.41
2023-02-19T22:54:27.064Z,79.99
2023-02-19T22:56:54.674Z,79.71
2023-02-19T22:59:22.397Z,80.62
2023-02-19T23:01:50.196Z,79.97
2023-02-19T23:04:17.752Z,80.46
2023-02-19T23:06:45.694Z,79.61
2023-02-19T23:09:16.696Z,80.79
2023-02-19T23:11:46.279Z,80.18
2023-02-19T23:14:14.458Z,80.45
2023-02-19T23:16:42.085Z,80.04
2023-02-19T23:19:11.645Z,80.54
2023-02-19T23:21:42.246Z,80.84
2023-02-19T23:24:10.474Z,80.56
2023-02-19T23:26:42.845Z,80.51
2023-02-19T23:29:11.930Z,80.13
2023-02-19T23:31:39.536Z,81.12
2023-02-19T23:34:08.005Z,80.76
2023-02-19T23:36:40.842Z,80.77
2023-02-19T23:39:09.828Z,81.00
2023-02-19T23:41:37.337Z,80.74
2023-02-19T23:44:04.851Z,80.65
2023-02-19T23:46:33.843Z,81.41
2023-02-19T23:49:01.340Z,81.28
2023-02-19T23:51:28.940Z,80.82
2023-02-19T23:53:56.396Z,81.26
2023-02-19T23:56:24.717Z,80.77
2023-02-19T23:58:52.234Z,81.22
